Time;durP1;ratioP1;P1;durP2;ratioP2;P2;SDS_P1;SDS_P2;PMS_P1;PMS_P2;Temp;Humidity;BMP_temperature;BMP_pressure;BME280_temperature;BME280_humidity;BME280_pressure;Samples;Min_cycle;Max_cycle;Signal;HPM_P1;HPM_P2
2023/09/03 00:00:12;;;;;;;11.10;10.60;;;;;;;;;;5083845;28;20476;-59
2023/09/03 00:02:38;;;;;;;11.18;10.68;;;;;;;;;;5087363;28;20027;-60
2023/09/03 00:05:03;;;;;;;11.23;10.73;;;;;;;;;;5082761;28;20432;-60
2023/09/03 00:07:29;;;;;;;11.20;10.70;;;;;;;;;;5088286;28;20044;-60
2023/09/03 00:09:54;;;;;;;11.07;10.57;;;;;;;;;;5085068;28;20063;-60
2023/09/03 00:12:19;;;;;;;11.50;11.00;;;;;;;;;;5079627;28;20051;-60
2023/09/03 00:14:45;;;;;;;11.45;10.95;;;;;;;;;;5084299;28;20017;-58
2023/09/03 00:17:14;;;;;;;11.27;10.77;;;;;;;;;;5084533;28;20519;-60
2023/09/03 00:19:43;;;;;;;11.23;10.73;;;;;;;;;;5089112;28;20656;-59
2023/09/03 00:22:08;;;;;;;11.00;10.50;;;;;;;;;;5080925;28;20020;-59
2023/09/03 00:24:33;;;;;;;11.38;10.88;;;;;;;;;;5086373;28;20024;-59
2023/09/03 00:26:59;;;;;;;12.23;11.63;;;;;;;;;;5080786;28;20047;-60
2023/09/03 00:29:24;;;;;;;11.13;10.63;;;;;;;;;;5081763;28;20028;-60
2023/09/03 00:31:49;;;;;;;11.00;10.50;;;;;;;;;;5086320;28;20028;-60
2023/09/03 00:34:15;;;;;;;11.30;10.80;;;;;;;;;;5087468;28;20020;-70
2023/09/03 00:36:40;;;;;;;11.30;10.80;;;;;;;;;;5081559;28;20066;-60
2023/09/03 00:39:06;;;;;;;10.90;10.40;;;;;;;;;;5082945;28;20020;-59
2023/09/03 00:41:32;;;;;;;11.65;11.15;;;;;;;;;;5082272;28;20024;-59
2023/09/03 00:43:57;;;;;;;11.63;11.13;;;;;;;;;;5079905;28;20025;-59
2023/09/03 00:46:23;;;;;;;11.60;11.10;;;;;;;;;;5083703;28;20035;-60
2023/09/03 00:48:49;;;;;;;11.43;10.93;;;;;;;;;;5076695;28;20028;-59
2023/09/03 00:51:15;;;;;;;11.32;10.82;;;;;;;;;;5080784;28;20024;-60
2023/09/03 00:53:44;;;;;;;11.30;10.80;;;;;;;;;;5078803;28;20018;-60
2023/09/03 00:56:10;;;;;;;11.30;10.80;;;;;;;;;;5086587;28;20026;-60
2023/09/03 00:58:36;;;;;;;11.48;10.98;;;;;;;;;;5087718;28;20107;-60
2023/09/03 01:01:02;;;;;;;11.50;11.00;;;;;;;;;;5084104;28;20375;-62
2023/09/03 01:03:27;;;;;;;11.20;10.70;;;;;;;;;;5085551;28;20119;-60
2023/09/03 01:05:52;;;;;;;10.73;10.23;;;;;;;;;;5081062;28;20081;-60
2023/09/03 01:08:18;;;;;;;11.10;10.60;;;;;;;;;;5085946;28;20063;-60
2023/09/03 01:11:02;;;;;;;11.23;10.73;;;;;;;;;;5079440;28;20407;-60
2023/09/03 01:13:28;;;;;;;;;;;;;;;;;;5082554;28;20027;-60
2023/09/03 01:15:54;;;;;;;10.80;10.30;;;;;;;;;;5087764;28;19911;-60
2023/09/03 01:18:21;;;;;;;10.88;10.38;;;;;;;;;;5085787;28;20275;-60
2023/09/03 01:20:59;;;;;;;11.48;10.98;;;;;;;;;;5088512;28;20030;-60
2023/09/03 01:23:31;;;;;;;10.80;10.30;;;;;;;;;;5084304;28;20458;-61
2023/09/03 01:26:09;;;;;;;10.77;10.27;;;;;;;;;;5083143;28;20047;-60
2023/09/03 01:28:41;;;;;;;11.40;10.90;;;;;;;;;;5086788;28;20076;-60
2023/09/03 01:31:11;;;;;;;11.65;11.15;;;;;;;;;;5082634;28;20119;-60
2023/09/03 01:33:38;;;;;;;11.63;11.13;;;;;;;;;;5081718;28;20110;-60
2023/09/03 01:36:06;;;;;;;11.07;10.57;;;;;;;;;;5087297;28;20067;-61
2023/09/03 01:38:31;;;;;;;11.25;10.75;;;;;;;;;;5082552;28;20090;-61
2023/09/03 01:40:59;;;;;;;11.05;10.55;;;;;;;;;;5085457;28;20420;-60
2023/09/03 01:43:26;;;;;;;10.82;10.32;;;;;;;;;;5086998;28;20359;-60
2023/09/03 01:46:00;;;;;;;10.88;10.38;;;;;;;;;;5091212;28;20099;-59
2023/09/03 01:48:43;;;;;;;10.75;10.25;;;;;;;;;;5081118;28;20558;-60
2023/09/03 01:51:14;;;;;;;11.77;11.27;;;;;;;;;;5079748;28;20036;-62
2023/09/03 01:53:51;;;;;;;11.00;10.50;;;;;;;;;;5078758;28;20077;-60
2023/09/03 01:56:17;;;;;;;10.98;10.48;;;;;;;;;;5082060;28;20048;-59
2023/09/03 01:58:46;;;;;;;11.27;10.77;;;;;;;;;;5086707;28;20046;-60
2023/09/03 02:01:12;;;;;;;11.45;10.95;;;;;;;;;;5080010;28;20032;-60
2023/09/03 02:03:38;;;;;;;11.30;10.80;;;;;;;;;;5088006;28;20047;-60
2023/09/03 02:06:05;;;;;;;11.18;10.68;;;;;;;;;;5085658;28;20024;-61
2023/09/03 02:08:31;;;;;;;10.93;10.43;;;;;;;;;;5084871;28;20162;-60
2023/09/03 02:10:56;;;;;;;10.77;10.27;;;;;;;;;;5083939;28;20099;-60
2023/09/03 02:13:21;;;;;;;10.90;10.40;;;;;;;;;;5081158;28;20494;-60
2023/09/03 02:15:46;;;;;;;11.10;10.60;;;;;;;;;;5082853;28;20065;-60
2023/09/03 02:18:12;;;;;;;11.20;10.70;;;;;;;;;;5085434;28;20016;-60
2023/09/03 02:20:37;;;;;;;11.00;10.50;;;;;;;;;;5083503;28;20344;-61
2023/09/03 02:23:03;;;;;;;11.15;10.65;;;;;;;;;;5085059;28;20024;-59
2023/09/03 02:25:28;;;;;;;11.20;10.70;;;;;;;;;;5087455;28;20028;-60
2023/09/03 02:27:54;;;;;;;11.75;11.25;;;;;;;;;;5080262;28;20027;-61
2023/09/03 02:30:20;;;;;;;11.80;11.30;;;;;;;;;;5083509;28;20376;-60
2023/09/03 02:32:46;;;;;;;10.98;10.48;;;;;;;;;;5084672;28;20044;-60
2023/09/03 02:35:11;;;;;;;11.35;10.85;;;;;;;;;;5083651;28;20154;-60
2023/09/03 02:37:36;;;;;;;11.10;10.60;;;;;;;;;;5081083;28;20024;-59
2023/09/03 02:40:02;;;;;;;10.93;10.43;;;;;;;;;;5083649;28;20032;-61
2023/09/03 02:42:27;;;;;;;11.13;10.63;;;;;;;;;;5081098;28;20086;-61
2023/09/03 02:44:53;;;;;;;11.00;10.50;;;;;;;;;;5083470;28;20472;-61
2023/09/03 02:47:18;;;;;;;10.90;10.40;;;;;;;;;;5085674;28;20038;-61
2023/09/03 02:49:43;;;;;;;11.48;10.98;;;;;;;;;;5085891;28;20020;-61
2023/09/03 02:52:09;;;;;;;11.25;10.75;;;;;;;;;;5090607;28;20483;-60
2023/09/03 02:54:34;;;;;;;11.57;11.07;;;;;;;;;;5083623;28;20134;-60
2023/09/03 02:56:59;;;;;;;11.30;10.80;;;;;;;;;;5088825;28;20016;-59
2023/09/03 02:59:25;;;;;;;11.07;10.57;;;;;;;;;;5088938;28;20020;-60
2023/09/03 03:01:50;;;;;;;11.65;11.15;;;;;;;;;;5084957;28;20037;-62
2023/09/03 03:04:16;;;;;;;11.25;10.75;;;;;;;;;;5085553;28;20047;-60
2023/09/03 03:06:41;;;;;;;11.20;10.70;;;;;;;;;;5079844;28;20048;-60
2023/09/03 03:09:06;;;;;;;11.00;10.50;;;;;;;;;;5083110;28;20081;-60
2023/09/03 03:11:32;;;;;;;11.00;10.50;;;;;;;;;;5086609;28;20024;-60
2023/09/03 03:13:57;;;;;;;11.10;10.60;;;;;;;;;;5084483;28;20498;-61
2023/09/03 03:16:23;;;;;;;11.25;10.75;;;;;;;;;;5091941;28;20097;-60
2023/09/03 03:18:50;;;;;;;11.23;10.73;;;;;;;;;;5088890;28;20032;-60
2023/09/03 03:21:20;;;;;;;11.95;11.40;;;;;;;;;;5090375;28;20047;-60
2023/09/03 03:23:46;;;;;;;11.23;10.73;;;;;;;;;;5088983;28;20032;-60
2023/09/03 03:26:12;;;;;;;11.30;10.80;;;;;;;;;;5088586;28;20031;-61
2023/09/03 03:28:37;;;;;;;11.43;10.93;;;;;;;;;;5089017;28;20020;-60
2023/09/03 03:31:12;;;;;;;11.07;10.57;;;;;;;;;;5087670;28;20035;-61
2023/09/03 03:33:38;;;;;;;11.27;10.77;;;;;;;;;;5090328;28;20103;-60
2023/09/03 03:36:04;;;;;;;11.02;10.52;;;;;;;;;;5085627;28;20116;-60
2023/09/03 03:38:30;;;;;;;11.10;10.60;;;;;;;;;;5090145;28;20376;-60
2023/09/03 03:41:10;;;;;;;11.55;11.05;;;;;;;;;;5084901;28;20504;-60
2023/09/03 03:43:36;;;;;;;11.32;10.82;;;;;;;;;;5083748;28;20116;-60
2023/09/03 03:46:02;;;;;;;11.80;11.30;;;;;;;;;;5082903;28;20103;-58
2023/09/03 03:48:27;;;;;;;11.20;10.70;;;;;;;;;;5087639;28;20101;-60
2023/09/03 03:50:56;;;;;;;11.00;10.50;;;;;;;;;;5088010;28;20028;-60
2023/09/03 03:53:21;;;;;;;11.50;11.00;;;;;;;;;;5087415;28;20016;-60
2023/09/03 03:55:46;;;;;;;11.02;10.52;;;;;;;;;;5089902;28;20489;-60
2023/09/03 03:58:12;;;;;;;11.25;10.75;;;;;;;;;;5087061;28;20024;-59
2023/09/03 04:00:37;;;;;;;11.20;10.70;;;;;;;;;;5083352;28;20070;-61
2023/09/03 04:03:02;;;;;;;11.10;10.60;;;;;;;;;;5086553;28;20115;-61
2023/09/03 04:05:28;;;;;;;11.52;11.02;;;;;;;;;;5084331;28;20032;-60
2023/09/03 04:07:54;;;;;;;11.60;11.10;;;;;;;;;;5081545;28;20028;-60
2023/09/03 04:10:20;;;;;;;11.45;10.95;;;;;;;;;;5084996;28;20043;-61
2023/09/03 04:12:46;;;;;;;11.35;10.85;;;;;;;;;;5086192;28;20051;-61
2023/09/03 04:15:11;;;;;;;11.65;11.15;;;;;;;;;;5082116;28;20016;-61
2023/09/03 04:17:37;;;;;;;11.57;11.07;;;;;;;;;;5088518;28;20386;-61
2023/09/03 04:20:02;;;;;;;11.25;10.75;;;;;;;;;;5084112;28;20024;-61
2023/09/03 04:22:28;;;;;;;11.30;10.80;;;;;;;;;;5082116;28;20051;-61
2023/09/03 04:24:53;;;;;;;11.52;11.02;;;;;;;;;;5083578;28;20032;-61
2023/09/03 04:27:18;;;;;;;11.37;10.87;;;;;;;;;;5085799;28;20095;-60
2023/09/03 04:29:43;;;;;;;11.60;11.10;;;;;;;;;;5088036;28;20296;-61
2023/09/03 04:32:09;;;;;;;11.50;11.00;;;;;;;;;;5077574;28;20020;-62
2023/09/03 04:34:34;;;;;;;11.90;11.40;;;;;;;;;;5085123;28;20252;-61
2023/09/03 04:36:59;;;;;;;11.77;11.27;;;;;;;;;;5080043;28;20016;-61
2023/09/03 04:39:24;;;;;;;11.63;11.13;;;;;;;;;;5087085;28;20261;-61
2023/09/03 04:41:50;;;;;;;11.55;11.05;;;;;;;;;;5083679;28;20028;-61
2023/09/03 04:44:15;;;;;;;11.60;11.10;;;;;;;;;;5084278;28;20016;-60
2023/09/03 04:46:40;;;;;;;11.30;10.80;;;;;;;;;;5080971;28;20016;-60
2023/09/03 04:49:06;;;;;;;11.57;11.07;;;;;;;;;;5083153;28;20019;-60
2023/09/03 04:51:31;;;;;;;11.60;11.10;;;;;;;;;;5084921;28;20292;-60
2023/09/03 04:53:56;;;;;;;11.40;10.90;;;;;;;;;;5075711;28;20756;-60
2023/09/03 04:56:21;;;;;;;11.80;11.30;;;;;;;;;;5081006;28;20101;-61
2023/09/03 04:58:47;;;;;;;11.70;11.20;;;;;;;;;;5081709;28;20273;-61
2023/09/03 05:01:16;;;;;;;12.10;11.60;;;;;;;;;;5076911;28;20023;-61
2023/09/03 05:03:41;;;;;;;11.30;10.80;;;;;;;;;;5079028;28;20044;-60
2023/09/03 05:06:10;;;;;;;12.35;11.80;;;;;;;;;;5077066;28;20502;-60
2023/09/03 05:08:36;;;;;;;11.43;10.93;;;;;;;;;;5079119;28;20103;-60
2023/09/03 05:11:08;;;;;;;11.90;11.40;;;;;;;;;;5086683;28;20468;-60
2023/09/03 05:13:33;;;;;;;11.75;11.25;;;;;;;;;;5082335;28;20050;-61
2023/09/03 05:15:58;;;;;;;11.93;11.43;;;;;;;;;;5080853;28;20039;-61
2023/09/03 05:18:24;;;;;;;11.25;10.75;;;;;;;;;;5082046;28;20464;-61
2023/09/03 05:20:49;;;;;;;11.65;11.15;;;;;;;;;;5078828;28;20059;-60
2023/09/03 05:23:14;;;;;;;11.50;11.00;;;;;;;;;;5080005;28;20020;-60
2023/09/03 05:25:40;;;;;;;11.47;10.97;;;;;;;;;;5087692;28;20529;-61
2023/09/03 05:28:05;;;;;;;11.55;11.05;;;;;;;;;;5086864;28;20252;-60
2023/09/03 05:30:30;;;;;;;11.82;11.32;;;;;;;;;;5080312;28;20385;-60
2023/09/03 05:32:56;;;;;;;12.07;11.57;;;;;;;;;;5085171;28;20024;-59
2023/09/03 05:35:21;;;;;;;11.47;10.97;;;;;;;;;;5078210;28;20091;-61
2023/09/03 05:37:46;;;;;;;11.95;11.45;;;;;;;;;;5086156;28;20260;-62
2023/09/03 05:40:12;;;;;;;11.87;11.37;;;;;;;;;;5083728;28;20020;-61
2023/09/03 05:42:38;;;;;;;11.98;11.48;;;;;;;;;;5079752;28;20375;-60
2023/09/03 05:45:03;;;;;;;12.13;11.63;;;;;;;;;;5076855;28;20119;-60
2023/09/03 05:47:28;;;;;;;12.35;11.85;;;;;;;;;;5074077;28;20039;-61
2023/09/03 05:49:55;;;;;;;12.15;11.65;;;;;;;;;;5074591;28;20030;-61
2023/09/03 05:52:20;;;;;;;12.20;11.70;;;;;;;;;;5073356;28;20016;-60
2023/09/03 05:54:46;;;;;;;12.07;11.57;;;;;;;;;;5079630;28;20038;-59
2023/09/03 05:57:11;;;;;;;12.13;11.63;;;;;;;;;;5074672;28;20292;-60
2023/09/03 05:59:37;;;;;;;12.27;11.77;;;;;;;;;;5077864;28;20054;-60
2023/09/03 06:02:02;;;;;;;11.83;11.33;;;;;;;;;;5072608;28;20269;-59
2023/09/03 06:04:29;;;;;;;11.98;11.48;;;;;;;;;;5072572;28;20733;-61
2023/09/03 06:06:54;;;;;;;11.90;11.40;;;;;;;;;;5082467;28;20020;-62
2023/09/03 06:09:20;;;;;;;11.87;11.37;;;;;;;;;;5075051;28;20024;-60
2023/09/03 06:11:47;;;;;;;12.10;11.60;;;;;;;;;;5075625;28;20298;-61
2023/09/03 06:14:12;;;;;;;12.20;11.70;;;;;;;;;;5082973;28;20046;-61
2023/09/03 06:16:37;;;;;;;12.05;11.55;;;;;;;;;;5082355;28;20032;-61
2023/09/03 06:19:02;;;;;;;12.30;11.80;;;;;;;;;;5080881;28;20564;-61
2023/09/03 06:21:29;;;;;;;11.77;11.27;;;;;;;;;;5081796;28;20021;-61
2023/09/03 06:23:54;;;;;;;11.98;11.48;;;;;;;;;;5078889;28;20032;-62
2023/09/03 06:26:20;;;;;;;12.00;11.50;;;;;;;;;;5079567;28;20434;-61
2023/09/03 06:28:46;;;;;;;11.63;11.13;;;;;;;;;;5081705;28;20039;-61
2023/09/03 06:31:12;;;;;;;11.93;11.43;;;;;;;;;;5084615;28;20031;-61
2023/09/03 06:33:37;;;;;;;12.13;11.63;;;;;;;;;;5074494;28;20415;-60
2023/09/03 06:36:02;;;;;;;11.87;11.37;;;;;;;;;;5079533;28;20025;-61
2023/09/03 06:38:28;;;;;;;11.95;11.45;;;;;;;;;;5079351;28;20801;-59
2023/09/03 06:40:53;;;;;;;12.10;11.60;;;;;;;;;;5075951;28;20937;-61
2023/09/03 06:43:18;;;;;;;12.05;11.55;;;;;;;;;;5078639;28;20908;-61
2023/09/03 06:45:44;;;;;;;12.03;11.53;;;;;;;;;;5083513;28;20715;-60
2023/09/03 06:48:09;;;;;;;12.27;11.77;;;;;;;;;;5076953;28;20927;-61
2023/09/03 06:50:34;;;;;;;12.25;11.75;;;;;;;;;;5080130;28;20330;-62
2023/09/03 06:53:00;;;;;;;12.15;11.65;;;;;;;;;;5078076;28;20028;-61
2023/09/03 06:55:25;;;;;;;12.40;11.87;;;;;;;;;;5082316;28;20020;-61
2023/09/03 06:57:50;;;;;;;12.03;11.53;;;;;;;;;;5080791;28;20028;-62
2023/09/03 07:00:16;;;;;;;12.02;11.52;;;;;;;;;;5078570;28;20040;-62
2023/09/03 07:02:41;;;;;;;12.27;11.77;;;;;;;;;;5081134;28;20102;-61
2023/09/03 07:05:08;;;;;;;11.73;11.23;;;;;;;;;;5081119;28;20075;-61
2023/09/03 07:07:35;;;;;;;11.80;11.30;;;;;;;;;;5082417;28;20031;-61
2023/09/03 07:10:01;;;;;;;12.05;11.55;;;;;;;;;;5084735;28;20036;-61
2023/09/03 07:12:26;;;;;;;12.18;11.68;;;;;;;;;;5079715;28;20016;-61
2023/09/03 07:14:52;;;;;;;12.27;11.77;;;;;;;;;;5086091;28;20023;-60
2023/09/03 07:17:17;;;;;;;12.23;11.73;;;;;;;;;;5085388;28;20348;-62
2023/09/03 07:19:43;;;;;;;12.70;12.10;;;;;;;;;;5083128;28;20160;-62
2023/09/03 07:22:09;;;;;;;12.23;11.73;;;;;;;;;;5081251;28;20866;-61
2023/09/03 07:24:34;;;;;;;11.80;11.30;;;;;;;;;;5084990;28;20103;-61
2023/09/03 07:26:59;;;;;;;11.57;11.07;;;;;;;;;;5084585;28;20063;-60
2023/09/03 07:29:24;;;;;;;11.67;11.17;;;;;;;;;;5086098;28;20016;-61
2023/09/03 07:31:50;;;;;;;11.83;11.33;;;;;;;;;;5084473;28;20047;-60
2023/09/03 07:34:15;;;;;;;12.18;11.68;;;;;;;;;;5085807;28;20488;-61
2023/09/03 07:36:41;;;;;;;12.05;11.55;;;;;;;;;;5083899;28;20110;-62
2023/09/03 07:39:09;;;;;;;12.00;11.50;;;;;;;;;;5083148;28;20467;-61
2023/09/03 07:41:34;;;;;;;12.02;11.52;;;;;;;;;;5086341;28;20040;-61
2023/09/03 07:44:00;;;;;;;12.20;11.70;;;;;;;;;;5079349;28;20056;-61
2023/09/03 07:46:25;;;;;;;12.20;11.70;;;;;;;;;;5082815;28;20032;-61
2023/09/03 07:48:50;;;;;;;11.93;11.43;;;;;;;;;;5077242;28;20032;-61
2023/09/03 07:51:17;;;;;;;11.93;11.43;;;;;;;;;;5084416;28;20024;-61
2023/09/03 07:53:43;;;;;;;11.57;11.07;;;;;;;;;;5082371;28;20016;-61
2023/09/03 07:56:08;;;;;;;11.85;11.35;;;;;;;;;;5087258;28;20024;-60
2023/09/03 07:58:33;;;;;;;11.97;11.47;;;;;;;;;;5082268;28;20028;-61
2023/09/03 08:01:00;;;;;;;11.68;11.18;;;;;;;;;;5081998;28;20028;-61
2023/09/03 08:03:33;;;;;;;11.85;11.35;;;;;;;;;;5081019;28;20457;-60
2023/09/03 08:05:59;;;;;;;12.32;11.82;;;;;;;;;;5081328;28;20070;-61
2023/09/03 08:08:25;;;;;;;11.98;11.48;;;;;;;;;;5078598;28;20024;-60
2023/09/03 08:10:50;;;;;;;11.43;10.93;;;;;;;;;;5082115;28;20033;-61
2023/09/03 08:13:15;;;;;;;11.60;11.10;;;;;;;;;;5074468;28;20024;-62
2023/09/03 08:15:41;;;;;;;11.75;11.25;;;;;;;;;;5083705;28;20107;-62
2023/09/03 08:18:06;;;;;;;11.80;11.30;;;;;;;;;;5078310;28;20021;-62
2023/09/03 08:20:31;;;;;;;11.68;11.18;;;;;;;;;;5080831;28;20032;-62
2023/09/03 08:22:57;;;;;;;11.70;11.20;;;;;;;;;;5075429;28;20040;-60
2023/09/03 08:25:22;;;;;;;11.47;10.97;;;;;;;;;;5081091;28;20109;-60
2023/09/03 08:27:48;;;;;;;11.45;10.95;;;;;;;;;;5077987;28;20303;-61
2023/09/03 08:30:13;;;;;;;11.63;11.13;;;;;;;;;;5080635;28;20024;-60
2023/09/03 08:32:38;;;;;;;11.33;10.83;;;;;;;;;;5078941;28;20085;-61
2023/09/03 08:35:04;;;;;;;11.57;11.07;;;;;;;;;;5078311;28;20327;-60
2023/09/03 08:37:30;;;;;;;11.57;11.07;;;;;;;;;;5084956;28;20020;-58
2023/09/03 08:39:55;;;;;;;11.48;10.98;;;;;;;;;;5083408;28;20028;-60
2023/09/03 08:42:21;;;;;;;11.80;11.30;;;;;;;;;;5083647;28;20074;-60
2023/09/03 08:44:49;;;;;;;11.95;11.45;;;;;;;;;;5082285;28;20116;-59
2023/09/03 08:47:16;;;;;;;11.95;11.45;;;;;;;;;;5082639;28;20032;-61
2023/09/03 08:49:43;;;;;;;11.70;11.20;;;;;;;;;;5087562;28;20479;-60
2023/09/03 08:52:09;;;;;;;11.52;11.02;;;;;;;;;;5082162;28;20016;-60
2023/09/03 08:54:35;;;;;;;11.38;10.88;;;;;;;;;;5081418;28;20373;-60
2023/09/03 08:57:01;;;;;;;11.57;11.07;;;;;;;;;;5081323;28;20024;-59
2023/09/03 08:59:26;;;;;;;11.63;11.13;;;;;;;;;;5085433;28;20016;-60
2023/09/03 09:01:53;;;;;;;11.85;11.35;;;;;;;;;;5086356;28;20021;-61
2023/09/03 09:04:19;;;;;;;11.60;11.10;;;;;;;;;;5081912;28;20040;-60
2023/09/03 09:06:46;;;;;;;11.50;11.00;;;;;;;;;;5083871;28;20028;-60
2023/09/03 09:09:12;;;;;;;11.70;11.20;;;;;;;;;;5089089;28;20544;-59
2023/09/03 09:11:39;;;;;;;11.32;10.82;;;;;;;;;;5082669;28;20059;-59
2023/09/03 09:14:08;;;;;;;12.00;11.50;;;;;;;;;;5081973;28;20027;-58
2023/09/03 09:16:33;;;;;;;11.68;11.18;;;;;;;;;;5081335;28;20107;-60
2023/09/03 09:19:02;;;;;;;11.50;11.00;;;;;;;;;;5084330;28;20103;-58
2023/09/03 09:21:30;;;;;;;11.55;11.05;;;;;;;;;;5081106;28;20077;-60
2023/09/03 09:24:02;;;;;;;11.75;11.25;;;;;;;;;;5077786;28;20016;-60
2023/09/03 09:26:31;;;;;;;11.82;11.32;;;;;;;;;;5081136;28;20048;-60
2023/09/03 09:28:57;;;;;;;11.90;11.40;;;;;;;;;;5079557;28;20421;-59
2023/09/03 09:31:33;;;;;;;11.95;11.45;;;;;;;;;;5076237;28;20119;-59
2023/09/03 09:34:00;;;;;;;11.68;11.18;;;;;;;;;;5077204;28;20017;-58
2023/09/03 09:36:25;;;;;;;11.27;10.77;;;;;;;;;;5079967;28;20044;-60
2023/09/03 09:38:51;;;;;;;11.57;11.07;;;;;;;;;;5079799;28;20093;-58
2023/09/03 09:41:23;;;;;;;11.95;11.45;;;;;;;;;;5077571;28;20402;-60
2023/09/03 09:43:48;;;;;;;12.15;11.65;;;;;;;;;;5076140;28;20029;-60
2023/09/03 09:46:27;;;;;;;11.98;11.48;;;;;;;;;;5081211;28;20027;-58
2023/09/03 09:48:58;;;;;;;11.80;11.30;;;;;;;;;;5078005;28;20024;-59
2023/09/03 09:51:25;;;;;;;11.60;11.10;;;;;;;;;;5078892;28;20032;-60
2023/09/03 09:53:57;;;;;;;11.80;11.30;;;;;;;;;;5080390;28;20024;-59
2023/09/03 09:56:27;;;;;;;11.75;11.25;;;;;;;;;;5077749;28;20342;-59
2023/09/03 09:58:52;;;;;;;11.93;11.43;;;;;;;;;;5081264;28;20073;-59
2023/09/03 10:01:18;;;;;;;12.02;11.52;;;;;;;;;;5079182;28;20024;-58
2023/09/03 10:03:45;;;;;;;11.80;11.30;;;;;;;;;;5086795;28;20048;-61
2023/09/03 10:06:12;;;;;;;11.60;11.10;;;;;;;;;;5088290;28;20062;-60
2023/09/03 10:08:37;;;;;;;11.70;11.20;;;;;;;;;;5083274;28;20383;-61
2023/09/03 10:11:03;;;;;;;11.45;10.95;;;;;;;;;;5085792;28;20020;-59
2023/09/03 10:13:31;;;;;;;11.20;10.70;;;;;;;;;;5084479;28;20103;-60
2023/09/03 10:15:59;;;;;;;11.20;10.70;;;;;;;;;;5084949;28;20253;-60
2023/09/03 10:18:26;;;;;;;11.38;10.88;;;;;;;;;;5091855;28;20020;-58
2023/09/03 10:20:52;;;;;;;11.30;10.80;;;;;;;;;;5087352;28;20104;-59
2023/09/03 10:23:19;;;;;;;11.77;11.27;;;;;;;;;;5085455;28;20062;-59
2023/09/03 10:25:46;;;;;;;11.40;10.90;;;;;;;;;;5086907;28;20020;-59
2023/09/03 10:28:12;;;;;;;11.93;11.43;;;;;;;;;;5091376;28;20031;-59
2023/09/03 10:30:40;;;;;;;11.77;11.27;;;;;;;;;;5085927;28;20103;-59
2023/09/03 10:33:09;;;;;;;11.40;10.90;;;;;;;;;;5089033;28;20099;-59
2023/09/03 10:35:34;;;;;;;11.85;11.35;;;;;;;;;;5087721;28;20112;-59
2023/09/03 10:38:00;;;;;;;11.57;11.07;;;;;;;;;;5091282;28;20077;-60
2023/09/03 10:40:26;;;;;;;11.68;11.18;;;;;;;;;;5086119;28;20455;-61
2023/09/03 10:42:52;;;;;;;11.43;10.93;;;;;;;;;;5081500;28;20499;-60
2023/09/03 10:45:18;;;;;;;11.63;11.13;;;;;;;;;;5091358;28;20024;-59
2023/09/03 10:48:02;;;;;;;11.65;11.15;;;;;;;;;;5085682;28;20050;-58
2023/09/03 10:50:50;;;;;;;11.45;10.95;;;;;;;;;;5089275;28;20103;-60
2023/09/03 10:53:35;;;;;;;11.40;10.90;;;;;;;;;;5084132;28;20031;-60
2023/09/03 10:56:00;;;;;;;;;;;;;;;;;;5086643;28;20111;-59
2023/09/03 10:58:30;;;;;;;11.80;11.30;;;;;;;;;;5086603;28;20529;-59
2023/09/03 11:01:14;;;;;;;11.20;10.70;;;;;;;;;;5080237;28;20021;-60
2023/09/03 11:03:48;;;;;;;11.52;11.02;;;;;;;;;;5090019;28;20074;-59
2023/09/03 11:06:20;;;;;;;11.48;10.98;;;;;;;;;;5082662;28;20307;-59
2023/09/03 11:08:46;;;;;;;11.60;11.10;;;;;;;;;;5088986;28;20031;-59
2023/09/03 11:11:18;;;;;;;11.63;11.13;;;;;;;;;;5081697;28;20123;-59
2023/09/03 11:13:53;;;;;;;11.50;11.00;;;;;;;;;;5090078;28;20014;-60
2023/09/03 11:16:25;;;;;;;11.52;11.02;;;;;;;;;;5083852;28;20483;-59
2023/09/03 11:18:50;;;;;;;11.55;11.05;;;;;;;;;;5085625;28;20074;-59
2023/09/03 11:21:16;;;;;;;11.50;11.00;;;;;;;;;;5084693;28;20020;-59
2023/09/03 11:24:00;;;;;;;11.43;10.93;;;;;;;;;;5081926;28;20050;-59
2023/09/03 11:26:25;;;;;;;;;;;;;;;;;;5088102;28;20344;-58
2023/09/03 11:28:50;;;;;;;11.45;10.95;;;;;;;;;;5089520;28;20360;-59
2023/09/03 11:31:16;;;;;;;11.30;10.80;;;;;;;;;;5089027;28;20029;-60
2023/09/03 11:33:41;;;;;;;11.32;10.82;;;;;;;;;;5091364;28;20344;-60
2023/09/03 11:36:07;;;;;;;11.80;11.30;;;;;;;;;;5085218;28;20027;-60
2023/09/03 11:38:33;;;;;;;11.40;10.90;;;;;;;;;;5085701;28;20027;-60
2023/09/03 11:40:58;;;;;;;11.18;10.68;;;;;;;;;;5080792;28;20028;-59
2023/09/03 11:43:25;;;;;;;11.43;10.93;;;;;;;;;;5082444;28;20039;-58
2023/09/03 11:45:50;;;;;;;11.70;11.20;;;;;;;;;;5083788;28;20034;-60
2023/09/03 11:48:22;;;;;;;11.48;10.98;;;;;;;;;;5083073;28;20024;-60
2023/09/03 11:50:50;;;;;;;11.50;11.00;;;;;;;;;;5088244;28;20035;-60
2023/09/03 11:53:15;;;;;;;11.43;10.93;;;;;;;;;;5084801;28;20017;-59
2023/09/03 11:55:42;;;;;;;11.60;11.10;;;;;;;;;;5087082;28;20070;-59
2023/09/03 11:58:10;;;;;;;11.45;10.95;;;;;;;;;;5089227;28;20095;-59
2023/09/03 12:00:36;;;;;;;11.55;11.05;;;;;;;;;;5085651;28;20016;-60
2023/09/03 12:03:03;;;;;;;11.40;10.90;;;;;;;;;;5077724;28;20101;-58
2023/09/03 12:05:28;;;;;;;11.50;11.00;;;;;;;;;;5087119;28;20108;-60
2023/09/03 12:08:00;;;;;;;11.40;10.90;;;;;;;;;;5082214;28;20155;-60
2023/09/03 12:10:25;;;;;;;11.32;10.82;;;;;;;;;;5085783;28;20069;-60
2023/09/03 12:12:52;;;;;;;11.27;10.77;;;;;;;;;;5083025;28;20378;-60
2023/09/03 12:15:18;;;;;;;11.35;10.85;;;;;;;;;;5083663;28;20027;-60
2023/09/03 12:17:43;;;;;;;11.35;10.85;;;;;;;;;;5078852;28;20016;-60
2023/09/03 12:20:09;;;;;;;11.60;11.10;;;;;;;;;;5080682;28;20095;-60
2023/09/03 12:22:34;;;;;;;11.60;11.10;;;;;;;;;;5083119;28;20024;-59
2023/09/03 12:25:04;;;;;;;11.30;10.80;;;;;;;;;;5080167;28;20472;-58
2023/09/03 12:27:29;;;;;;;11.15;10.65;;;;;;;;;;5084875;28;20051;-59
2023/09/03 12:29:57;;;;;;;10.95;10.45;;;;;;;;;;5086492;28;20081;-59
2023/09/03 12:32:36;;;;;;;11.20;10.70;;;;;;;;;;5086294;28;20471;-60
2023/09/03 12:35:13;;;;;;;11.18;10.68;;;;;;;;;;5077266;28;20479;-58
2023/09/03 12:37:40;;;;;;;11.52;11.02;;;;;;;;;;5080216;28;20016;-59
2023/09/03 12:40:05;;;;;;;11.40;10.90;;;;;;;;;;5084743;28;20020;-59
2023/09/03 12:42:31;;;;;;;11.65;11.15;;;;;;;;;;5085348;28;20100;-59
2023/09/03 12:44:56;;;;;;;11.35;10.85;;;;;;;;;;5078937;28;20021;-60
2023/09/03 12:47:21;;;;;;;11.43;10.93;;;;;;;;;;5085657;28;20028;-59
2023/09/03 12:49:47;;;;;;;11.60;11.10;;;;;;;;;;5086578;28;20148;-60
2023/09/03 12:52:12;;;;;;;11.60;11.10;;;;;;;;;;5086904;28;20245;-59
2023/09/03 12:54:38;;;;;;;11.32;10.82;;;;;;;;;;5080914;28;20020;-60
2023/09/03 12:57:04;;;;;;;11.60;11.10;;;;;;;;;;5084066;28;20018;-59
2023/09/03 12:59:29;;;;;;;11.82;11.32;;;;;;;;;;5088035;28;20095;-60
2023/09/03 13:01:55;;;;;;;11.80;11.30;;;;;;;;;;5082734;28;20123;-60
2023/09/03 13:04:20;;;;;;;11.93;11.43;;;;;;;;;;5080901;28;20458;-59
2023/09/03 13:06:45;;;;;;;11.60;11.10;;;;;;;;;;5081014;28;20039;-61
2023/09/03 13:09:11;;;;;;;11.85;11.35;;;;;;;;;;5076551;28;20093;-59
2023/09/03 13:11:36;;;;;;;11.75;11.25;;;;;;;;;;5079956;28;20101;-58
2023/09/03 13:14:02;;;;;;;11.70;11.20;;;;;;;;;;5080692;28;20044;-60
2023/09/03 13:16:27;;;;;;;11.90;11.40;;;;;;;;;;5083228;28;20459;-59
2023/09/03 13:18:53;;;;;;;11.48;10.98;;;;;;;;;;5086754;28;20434;-59
2023/09/03 13:21:19;;;;;;;12.48;11.90;;;;;;;;;;5076808;28;20046;-60
2023/09/03 13:23:44;;;;;;;11.55;11.05;;;;;;;;;;5082044;28;20029;-60
2023/09/03 13:26:09;;;;;;;11.73;11.23;;;;;;;;;;5083576;28;20476;-59
2023/09/03 13:28:35;;;;;;;11.57;11.07;;;;;;;;;;5083306;28;20447;-59
2023/09/03 13:31:04;;;;;;;11.82;11.32;;;;;;;;;;5083885;28;20100;-59
2023/09/03 13:33:29;;;;;;;11.50;11.00;;;;;;;;;;5077448;28;20021;-61
2023/09/03 13:35:55;;;;;;;11.68;11.18;;;;;;;;;;5081224;28;20017;-59
2023/09/03 13:38:20;;;;;;;11.57;11.07;;;;;;;;;;5083819;28;20133;-59
2023/09/03 13:40:47;;;;;;;11.50;11.00;;;;;;;;;;5083067;28;20051;-59
2023/09/03 13:43:12;;;;;;;12.07;11.57;;;;;;;;;;5085814;28;20050;-60
2023/09/03 13:45:37;;;;;;;11.50;11.00;;;;;;;;;;5088759;28;20016;-60
2023/09/03 13:48:03;;;;;;;11.75;11.25;;;;;;;;;;5079605;28;20024;-60
2023/09/03 13:50:28;;;;;;;11.80;11.30;;;;;;;;;;5080864;28;20039;-60
2023/09/03 13:52:54;;;;;;;11.55;11.05;;;;;;;;;;5077084;28;20028;-61
2023/09/03 13:55:23;;;;;;;11.52;11.02;;;;;;;;;;5082144;28;20119;-61
2023/09/03 13:57:48;;;;;;;11.60;11.10;;;;;;;;;;5087192;28;20024;-62
2023/09/03 14:00:14;;;;;;;11.47;10.97;;;;;;;;;;5083329;28;20548;-59
2023/09/03 14:02:40;;;;;;;12.80;12.20;;;;;;;;;;5073455;28;20269;-60
2023/09/03 14:05:05;;;;;;;11.52;11.02;;;;;;;;;;5075460;28;20068;-61
2023/09/03 14:07:31;;;;;;;11.38;10.88;;;;;;;;;;5084133;28;20085;-59
2023/09/03 14:09:56;;;;;;;11.43;10.93;;;;;;;;;;5081831;28;20032;-61
2023/09/03 14:12:22;;;;;;;11.60;11.10;;;;;;;;;;5084216;28;20584;-61
2023/09/03 14:14:47;;;;;;;12.13;11.63;;;;;;;;;;5077024;28;20404;-61